createdAt,value
2019-02-03T00:00:25.589Z,74.33
2019-02-03T00:01:29.180Z,74.57
2019-02-03T00:02:32.620Z,74.79
2019-02-03T00:03:36.115Z,74.76
2019-02-03T00:04:39.710Z,74.45
2019-02-03T00:05:43.265Z,74.16
2019-02-03T00:06:46.790Z,73.92
2019-02-03T00:07:50.295Z,73.94
2019-02-03T00:08:53.728Z,73.77
2019-02-03T00:09:57.240Z,73.53
2019-02-03T00:11:01.024Z,73.54
2019-02-03T00:12:04.790Z,73.63
2019-02-03T00:13:08.311Z,73.96
2019-02-03T00:14:11.774Z,74.09
2019-02-03T00:15:15.344Z,74.23
2019-02-03T00:16:18.846Z,74.15
2019-02-03T00:17:22.308Z,73.98
2019-02-03T00:18:25.847Z,73.79
2019-02-03T00:19:29.348Z,73.74
2019-02-03T00:20:32.839Z,73.67
2019-02-03T00:21:36.271Z,73.64
2019-02-03T00:22:39.869Z,73.46
2019-02-03T00:23:43.331Z,73.35
2019-02-03T00:24:46.770Z,73.25
2019-02-03T00:25:50.292Z,73.24
2019-02-03T00:26:54.010Z,73.27
2019-02-03T00:27:57.543Z,73.15
2019-02-03T00:29:01.013Z,73.04
2019-02-03T00:30:07.630Z,73.00
2019-02-03T00:31:11.066Z,72.97
2019-02-03T00:32:14.509Z,73.02
2019-02-03T00:33:18.041Z,72.92
2019-02-03T00:34:21.482Z,72.98
2019-02-03T00:35:25.027Z,73.24
2019-02-03T00:36:28.451Z,73.32
2019-02-03T00:37:31.906Z,73.43
2019-02-03T00:38:35.422Z,73.27
2019-02-03T00:39:38.893Z,73.07
2019-02-03T00:40:42.325Z,72.96
2019-02-03T00:41:46.046Z,72.96
2019-02-03T00:42:49.768Z,72.91
2019-02-03T00:43:53.227Z,72.73
2019-02-03T00:44:56.659Z,72.56
2019-02-03T00:46:00.097Z,72.61
2019-02-03T00:47:03.603Z,72.66
2019-02-03T00:48:07.041Z,72.72
2019-02-03T00:49:10.505Z,72.65
2019-02-03T00:50:15.932Z,72.51
2019-02-03T00:51:19.432Z,72.49
2019-02-03T00:52:22.868Z,72.67
2019-02-03T00:53:26.455Z,72.61
2019-02-03T00:54:29.903Z,72.51
2019-02-03T00:55:33.334Z,72.53
2019-02-03T00:56:36.758Z,72.43
2019-02-03T00:57:40.551Z,72.35
2019-02-03T00:58:44.043Z,72.51
2019-02-03T00:59:47.572Z,72.30
2019-02-03T01:00:51.175Z,72.20
2019-02-03T01:01:54.735Z,72.19
2019-02-03T01:02:58.233Z,72.04
2019-02-03T01:04:01.738Z,71.98
2019-02-03T01:05:08.366Z,72.24
2019-02-03T01:06:11.959Z,72.19
2019-02-03T01:07:26.854Z,72.15
2019-02-03T01:08:20.762Z,72.23
2019-02-03T01:09:24.270Z,72.17
2019-02-03T01:10:27.897Z,72.01
2019-02-03T01:11:31.581Z,71.95
2019-02-03T01:12:35.016Z,71.93
2019-02-03T01:13:38.727Z,71.89
2019-02-03T01:14:42.157Z,71.73
2019-02-03T01:15:45.606Z,71.83
2019-02-03T01:16:49.196Z,71.90
2019-02-03T01:17:52.769Z,71.98
2019-02-03T01:18:56.290Z,72.29
2019-02-03T01:19:59.836Z,72.20
2019-02-03T01:21:03.358Z,71.98
2019-02-03T01:22:06.773Z,72.03
2019-02-03T01:23:10.367Z,71.91
2019-02-03T01:24:13.865Z,72.00
2019-02-03T01:25:17.515Z,72.20
2019-02-03T01:26:21.036Z,72.04
2019-02-03T01:27:24.539Z,72.03
2019-02-03T01:28:28.244Z,72.00
2019-02-03T01:29:31.677Z,72.05
2019-02-03T01:30:35.181Z,72.22
2019-02-03T01:31:38.702Z,72.30
2019-02-03T01:32:42.270Z,72.16
2019-02-03T01:33:45.702Z,72.11
2019-02-03T01:34:49.134Z,72.37
2019-02-03T01:35:52.565Z,72.24
2019-02-03T01:36:56.095Z,72.34
2019-02-03T01:37:59.602Z,72.21
2019-02-03T01:39:04.069Z,72.03
2019-02-03T01:40:16.491Z,71.93
2019-02-03T01:41:19.919Z,71.80
2019-02-03T01:42:23.446Z,71.86
2019-02-03T01:43:26.901Z,71.67
2019-02-03T01:44:30.334Z,71.63
2019-02-03T01:45:34.111Z,71.86
2019-02-03T01:46:37.555Z,71.97
2019-02-03T01:47:41.137Z,71.86
2019-02-03T01:48:44.588Z,71.82
2019-02-03T01:49:48.045Z,72.10
2019-02-03T01:50:51.477Z,72.06
2019-02-03T01:51:54.911Z,72.19
2019-02-03T01:52:58.426Z,72.20
2019-02-03T01:54:01.855Z,72.25
2019-02-03T01:55:08.635Z,72.32
2019-02-03T01:56:12.066Z,72.18
2019-02-03T01:57:15.514Z,72.05
2019-02-03T01:58:18.988Z,72.02
2019-02-03T01:59:22.401Z,72.25
2019-02-03T02:00:28.348Z,72.18
2019-02-03T02:01:32.067Z,71.96
2019-02-03T02:02:35.571Z,71.86
2019-02-03T02:03:39.035Z,71.93
2019-02-03T02:04:42.512Z,72.18
2019-02-03T02:05:46.025Z,71.99
2019-02-03T02:06:49.457Z,71.98
2019-02-03T02:07:53.032Z,71.98
2019-02-03T02:08:56.481Z,71.83
2019-02-03T02:09:59.929Z,71.84
2019-02-03T02:11:03.358Z,71.92
2019-02-03T02:12:06.966Z,72.06
2019-02-03T02:13:10.471Z,72.30
2019-02-03T02:14:13.990Z,72.40
2019-02-03T02:15:19.139Z,72.35
2019-02-03T02:16:22.909Z,72.35
2019-02-03T02:17:26.419Z,72.35
2019-02-03T02:18:29.853Z,72.17
2019-02-03T02:19:33.307Z,72.18
2019-02-03T02:20:36.876Z,72.44
2019-02-03T02:21:40.385Z,72.65
2019-02-03T02:22:43.957Z,72.74
2019-02-03T02:23:47.401Z,72.88
2019-02-03T02:24:50.845Z,72.84
2019-02-03T02:25:54.297Z,72.77
2019-02-03T02:26:57.807Z,72.56
2019-02-03T02:28:01.305Z,72.41
2019-02-03T02:29:04.981Z,72.41
2019-02-03T02:30:16.904Z,72.52
2019-02-03T02:31:20.447Z,72.42
2019-02-03T02:32:24.132Z,72.38
2019-02-03T02:33:27.566Z,72.36
2019-02-03T02:34:31.000Z,72.70
2019-02-03T02:35:34.465Z,72.66
2019-02-03T02:36:37.891Z,72.62
2019-02-03T02:37:41.505Z,72.84
2019-02-03T02:38:44.942Z,72.79
2019-02-03T02:39:48.376Z,72.59
2019-02-03T02:40:51.884Z,72.48
2019-02-03T02:41:55.323Z,72.54
2019-02-03T02:42:58.767Z,72.50
2019-02-03T02:44:02.189Z,72.33
2019-02-03T02:45:08.368Z,72.51
2019-02-03T02:46:11.914Z,72.44
2019-02-03T02:47:15.739Z,72.22
2019-02-03T02:48:19.153Z,72.26
2019-02-03T02:49:22.592Z,72.06
2019-02-03T02:50:37.366Z,72.24
2019-02-03T02:51:40.921Z,72.15
2019-02-03T02:52:44.429Z,72.12
2019-02-03T02:53:47.865Z,72.06
2019-02-03T02:54:51.310Z,71.97
2019-02-03T02:55:54.747Z,71.92
2019-02-03T02:56:58.199Z,71.92
2019-02-03T02:58:01.803Z,71.80
2019-02-03T02:59:05.371Z,71.76
2019-02-03T03:00:11.851Z,72.01
2019-02-03T03:01:15.361Z,72.17
2019-02-03T03:02:18.812Z,72.16
2019-02-03T03:03:22.312Z,72.12
2019-02-03T03:04:25.818Z,72.10
2019-02-03T03:05:29.694Z,72.19
2019-02-03T03:06:33.197Z,72.25
2019-02-03T03:07:36.857Z,72.59
2019-02-03T03:08:40.322Z,72.63
2019-02-03T03:09:43.754Z,72.55
2019-02-03T03:10:47.176Z,72.40
2019-02-03T03:11:50.606Z,72.48
2019-02-03T03:12:54.196Z,72.52
2019-02-03T03:13:57.694Z,72.52
2019-02-03T03:15:01.209Z,72.62
2019-02-03T03:16:05.004Z,72.53
2019-02-03T03:17:08.445Z,72.61
2019-02-03T03:18:11.913Z,72.53
2019-02-03T03:19:15.406Z,72.49
2019-02-03T03:20:22.563Z,72.49
2019-02-03T03:21:26.365Z,72.33
2019-02-03T03:22:29.792Z,72.32
2019-02-03T03:23:33.245Z,72.31
2019-02-03T03:24:36.770Z,72.29
2019-02-03T03:25:40.273Z,72.70
2019-02-03T03:26:43.701Z,72.88
2019-02-03T03:27:47.217Z,72.91
2019-02-03T03:28:50.703Z,73.09
2019-02-03T03:29:54.136Z,73.09
2019-02-03T03:30:57.649Z,73.18
2019-02-03T03:32:01.189Z,72.87
2019-02-03T03:33:04.893Z,72.85
2019-02-03T03:34:08.385Z,72.77
2019-02-03T03:35:12.217Z,72.87
2019-02-03T03:36:15.934Z,73.04
2019-02-03T03:37:19.369Z,73.05
2019-02-03T03:38:31.796Z,73.48
2019-02-03T03:39:28.131Z,73.83
2019-02-03T03:40:31.739Z,73.71
2019-02-03T03:41:35.173Z,73.69
2019-02-03T03:42:38.605Z,73.61
2019-02-03T03:43:42.056Z,73.30
2019-02-03T03:44:45.577Z,73.23
2019-02-03T03:45:49.046Z,73.16
2019-02-03T03:46:52.558Z,73.03
2019-02-03T03:47:56.156Z,72.85
2019-02-03T03:48:59.607Z,72.89
2019-02-03T03:50:03.199Z,72.77
2019-02-03T03:51:07.051Z,73.01
2019-02-03T03:52:10.633Z,72.97
2019-02-03T03:53:14.141Z,73.12
2019-02-03T03:54:17.710Z,73.28
2019-02-03T03:55:21.259Z,73.13
2019-02-03T03:56:24.683Z,73.04
2019-02-03T03:57:28.106Z,73.13
2019-02-03T03:58:31.618Z,73.07
2019-02-03T03:59:35.037Z,73.23
2019-02-03T04:00:38.555Z,73.14
2019-02-03T04:01:42.143Z,73.05
2019-02-03T04:02:45.727Z,72.93
2019-02-03T04:03:49.305Z,73.39
2019-02-03T04:04:53.057Z,73.42
2019-02-03T04:05:56.953Z,73.40
2019-02-03T04:07:00.634Z,73.61
2019-02-03T04:08:04.386Z,73.53
2019-02-03T04:09:09.279Z,73.46
2019-02-03T04:10:15.260Z,73.47
2019-02-03T04:11:18.769Z,73.45
2019-02-03T04:12:22.341Z,73.53
2019-02-03T04:13:25.781Z,73.39
2019-02-03T04:14:29.286Z,73.32
2019-02-03T04:15:32.765Z,73.07
2019-02-03T04:16:36.307Z,73.05
2019-02-03T04:17:39.830Z,73.22
2019-02-03T04:18:43.266Z,73.36
2019-02-03T04:19:46.694Z,73.41
2019-02-03T04:20:50.647Z,73.34
2019-02-03T04:21:54.053Z,73.30
2019-02-03T04:22:57.644Z,73.47
2019-02-03T04:24:01.148Z,73.39
2019-02-03T04:25:06.753Z,73.40
2019-02-03T04:26:10.195Z,73.36
2019-02-03T04:27:13.655Z,73.14
2019-02-03T04:28:17.177Z,73.21
2019-02-03T04:29:20.676Z,73.13
2019-02-03T04:30:25.653Z,73.25
2019-02-03T04:31:29.086Z,73.16
2019-02-03T04:32:32.626Z,73.06
2019-02-03T04:33:36.059Z,73.35
2019-02-03T04:34:39.566Z,73.42
2019-02-03T04:35:43.256Z,73.62
2019-02-03T04:36:46.885Z,73.67
2019-02-03T04:37:50.487Z,73.74
2019-02-03T04:38:58.391Z,73.67
2019-02-03T04:39:59.151Z,73.55
2019-02-03T04:41:02.603Z,73.34
2019-02-03T04:42:06.174Z,73.34
2019-02-03T04:43:09.677Z,73.42
2019-02-03T04:44:13.159Z,73.29
2019-02-03T04:45:18.124Z,73.27
2019-02-03T04:46:21.603Z,73.36
2019-02-03T04:47:25.124Z,73.28
2019-02-03T04:48:28.642Z,73.56
2019-02-03T04:49:32.079Z,73.39
2019-02-03T04:50:35.618Z,73.35
2019-02-03T04:51:39.289Z,73.40
2019-02-03T04:52:42.810Z,73.26
2019-02-03T04:53:46.346Z,73.35
2019-02-03T04:54:49.793Z,73.43
2019-02-03T04:55:53.223Z,73.40
2019-02-03T04:56:56.816Z,73.16
2019-02-03T04:58:00.234Z,73.04
2019-02-03T04:59:03.838Z,73.14
2019-02-03T05:00:11.011Z,73.29
2019-02-03T05:01:14.475Z,73.25
2019-02-03T05:02:17.989Z,73.24
2019-02-03T05:03:21.451Z,73.13
2019-02-03T05:04:24.978Z,72.95
2019-02-03T05:05:28.421Z,73.29
2019-02-03T05:06:32.141Z,73.27
2019-02-03T05:07:35.872Z,73.09
2019-02-03T05:08:39.363Z,73.21
2019-02-03T05:09:42.898Z,73.07
2019-02-03T05:10:46.398Z,73.26
2019-02-03T05:11:49.905Z,73.28
2019-02-03T05:12:53.407Z,73.23
2019-02-03T05:13:56.878Z,73.63
2019-02-03T05:15:00.494Z,73.60
2019-02-03T05:16:04.174Z,73.61
2019-02-03T05:17:07.619Z,73.63
2019-02-03T05:18:11.194Z,73.59
2019-02-03T05:19:14.727Z,73.46
2019-02-03T05:20:20.414Z,73.22
2019-02-03T05:21:23.844Z,73.25
2019-02-03T05:22:27.655Z,73.13
2019-02-03T05:23:31.213Z,73.11
2019-02-03T05:24:34.743Z,73.14
2019-02-03T05:25:38.199Z,73.15
2019-02-03T05:26:41.706Z,73.13
2019-02-03T05:27:48.256Z,72.92
2019-02-03T05:28:51.713Z,72.97
2019-02-03T05:29:55.183Z,73.03
2019-02-03T05:30:58.612Z,73.16
2019-02-03T05:32:02.045Z,73.13
2019-02-03T05:33:05.701Z,73.06
2019-02-03T05:34:09.147Z,73.26
2019-02-03T05:35:12.818Z,73.56
2019-02-03T05:36:16.390Z,73.43
2019-02-03T05:37:20.110Z,73.49
2019-02-03T05:38:23.538Z,73.55
2019-02-03T05:39:27.060Z,73.50
2019-02-03T05:40:30.587Z,73.48
2019-02-03T05:41:34.208Z,73.62
2019-02-03T05:42:37.708Z,73.67
2019-02-03T05:43:41.187Z,73.84
2019-02-03T05:44:44.641Z,74.00
2019-02-03T05:45:48.116Z,74.26
2019-02-03T05:46:51.660Z,74.20
2019-02-03T05:47:55.137Z,74.04
2019-02-03T05:48:58.569Z,74.02
2019-02-03T05:50:02.251Z,74.05
2019-02-03T05:51:05.846Z,73.88
2019-02-03T05:52:09.648Z,73.78
2019-02-03T05:53:13.086Z,73.98
2019-02-03T05:54:16.602Z,73.96
2019-02-03T05:55:20.348Z,73.93
2019-02-03T05:56:23.867Z,73.84
2019-02-03T05:57:27.311Z,73.82
2019-02-03T05:58:30.734Z,73.90
2019-02-03T05:59:34.239Z,74.01
2019-02-03T06:00:39.307Z,73.99
2019-02-03T06:01:42.888Z,73.82
2019-02-03T06:02:46.365Z,73.79
2019-02-03T06:03:49.886Z,73.73
2019-02-03T06:04:53.297Z,73.84
2019-02-03T06:05:56.751Z,73.97
2019-02-03T06:07:00.481Z,73.93
2019-02-03T06:08:04.075Z,74.05
2019-02-03T06:09:07.972Z,73.91
2019-02-03T06:10:14.209Z,73.88
2019-02-03T06:11:17.655Z,73.75
2019-02-03T06:12:21.172Z,73.63
2019-02-03T06:13:24.617Z,73.87
2019-02-03T06:14:28.121Z,73.80
2019-02-03T06:15:31.697Z,73.80
2019-02-03T06:16:35.159Z,74.12
2019-02-03T06:17:38.650Z,74.34
2019-02-03T06:18:42.174Z,74.47
2019-02-03T06:19:45.710Z,74.69
2019-02-03T06:20:49.163Z,74.77
2019-02-03T06:21:52.827Z,74.67
2019-02-03T06:22:56.302Z,74.51
2019-02-03T06:23:59.781Z,74.48
2019-02-03T06:25:03.521Z,74.52
2019-02-03T06:26:07.006Z,74.76
2019-02-03T06:27:10.442Z,74.68
2019-02-03T06:28:13.940Z,74.74
2019-02-03T06:29:17.374Z,74.59
2019-02-03T06:30:23.866Z,74.54
2019-02-03T06:31:27.367Z,74.66
2019-02-03T06:32:30.863Z,74.66
2019-02-03T06:33:34.330Z,74.64
2019-02-03T06:34:37.833Z,74.87
2019-02-03T06:35:41.257Z,74.73
2019-02-03T06:36:44.709Z,74.59
2019-02-03T06:37:48.497Z,74.67
2019-02-03T06:38:52.097Z,74.48
2019-02-03T06:39:55.599Z,74.60
2019-02-03T06:40:59.055Z,74.81
2019-02-03T06:42:02.572Z,74.84
2019-02-03T06:43:06.016Z,74.79
2019-02-03T06:44:12.420Z,74.75
2019-02-03T06:45:23.197Z,74.72
2019-02-03T06:46:30.822Z,75.17
2019-02-03T06:47:34.325Z,75.21
2019-02-03T06:48:37.755Z,75.07
2019-02-03T06:49:41.217Z,75.12
2019-02-03T06:50:44.649Z,75.21
2019-02-03T06:51:48.148Z,75.16
2019-02-03T06:52:51.657Z,75.12
2019-02-03T06:53:55.089Z,74.98
2019-02-03T06:54:58.542Z,74.89
2019-02-03T06:56:02.495Z,74.92
2019-02-03T06:57:06.061Z,74.86
2019-02-03T06:58:09.562Z,74.95
2019-02-03T06:59:13.122Z,74.91
2019-02-03T07:00:17.124Z,74.88
2019-02-03T07:01:20.635Z,74.96
2019-02-03T07:02:24.159Z,75.04
2019-02-03T07:03:27.601Z,75.05
2019-02-03T07:04:31.147Z,74.99
2019-02-03T07:05:34.614Z,75.21
2019-02-03T07:06:38.117Z,75.21
2019-02-03T07:07:41.643Z,75.15
2019-02-03T07:08:45.072Z,75.08
2019-02-03T07:09:59.788Z,75.07
2019-02-03T07:10:53.974Z,74.95
2019-02-03T07:11:58.930Z,74.94
2019-02-03T07:13:02.426Z,74.97
2019-02-03T07:14:06.107Z,75.17
2019-02-03T07:15:10.891Z,75.22
2019-02-03T07:16:14.461Z,75.16
2019-02-03T07:17:18.140Z,75.29
2019-02-03T07:18:21.588Z,75.28
2019-02-03T07:19:25.036Z,75.07
2019-02-03T07:20:28.596Z,75.13
2019-02-03T07:21:32.159Z,75.24
2019-02-03T07:22:35.647Z,75.37
2019-02-03T07:23:39.162Z,75.17
2019-02-03T07:24:42.596Z,75.10
2019-02-03T07:25:46.368Z,75.14
2019-02-03T07:26:49.981Z,75.26
2019-02-03T07:27:53.521Z,75.27
2019-02-03T07:28:57.066Z,75.51
2019-02-03T07:30:00.621Z,75.54
2019-02-03T07:31:04.364Z,75.62
2019-02-03T07:32:08.053Z,75.62
2019-02-03T07:33:11.578Z,75.41
2019-02-03T07:34:15.076Z,75.34
2019-02-03T07:35:18.653Z,75.35
2019-02-03T07:36:22.263Z,75.33
2019-02-03T07:37:25.810Z,75.31
2019-02-03T07:38:29.236Z,75.15
2019-02-03T07:39:32.731Z,75.19
2019-02-03T07:40:36.510Z,75.34
2019-02-03T07:41:40.032Z,75.30
2019-02-03T07:42:43.688Z,75.50
2019-02-03T07:43:47.149Z,75.49
2019-02-03T07:44:50.655Z,75.45
2019-02-03T07:45:54.230Z,75.56
2019-02-03T07:46:58.574Z,75.69
2019-02-03T07:48:02.187Z,75.72
2019-02-03T07:49:05.881Z,75.55
2019-02-03T07:50:13.569Z,75.40
2019-02-03T07:51:17.076Z,75.47
2019-02-03T07:52:20.526Z,75.37
2019-02-03T07:53:23.990Z,75.54
2019-02-03T07:54:27.444Z,75.51
2019-02-03T07:55:31.140Z,75.66
2019-02-03T07:56:34.883Z,75.65
2019-02-03T07:57:38.524Z,75.74
2019-02-03T07:58:42.087Z,75.97
2019-02-03T07:59:45.645Z,75.89
2019-02-03T08:00:49.137Z,75.65
2019-02-03T08:01:52.651Z,75.78
2019-02-03T08:02:56.347Z,75.72
2019-02-03T08:03:59.885Z,75.76
2019-02-03T08:05:08.071Z,75.77
2019-02-03T08:06:11.513Z,75.68
2019-02-03T08:07:15.027Z,75.89
2019-02-03T08:08:18.469Z,76.07
2019-02-03T08:09:22.032Z,75.95
2019-02-03T08:10:29.762Z,75.82
2019-02-03T08:11:30.981Z,75.72
2019-02-03T08:12:34.497Z,75.65
2019-02-03T08:13:37.936Z,75.75
2019-02-03T08:14:41.402Z,75.89
2019-02-03T08:15:44.906Z,76.09
2019-02-03T08:16:48.347Z,75.91
2019-02-03T08:17:51.781Z,75.76
2019-02-03T08:18:55.336Z,75.72
2019-02-03T08:19:58.846Z,75.80
2019-02-03T08:21:02.268Z,75.70
2019-02-03T08:22:05.871Z,75.62
2019-02-03T08:23:09.370Z,75.71
2019-02-03T08:24:12.811Z,75.67
2019-02-03T08:25:17.479Z,75.57
2019-02-03T08:26:21.198Z,75.64
2019-02-03T08:27:24.638Z,75.56
2019-02-03T08:28:28.069Z,75.71
2019-02-03T08:29:31.507Z,75.78
2019-02-03T08:30:35.108Z,75.70
2019-02-03T08:31:38.600Z,75.84
2019-02-03T08:32:42.173Z,75.80
2019-02-03T08:33:45.755Z,75.87
2019-02-03T08:34:49.199Z,75.99
2019-02-03T08:35:52.716Z,76.00
2019-02-03T08:36:56.229Z,76.03
2019-02-03T08:37:59.678Z,76.01
2019-02-03T08:39:04.076Z,75.91
2019-02-03T08:40:16.582Z,75.60
2019-02-03T08:41:20.205Z,75.57
2019-02-03T08:42:23.915Z,75.44
2019-02-03T08:43:27.419Z,75.31
2019-02-03T08:44:31.052Z,75.42
2019-02-03T08:45:34.488Z,75.42
2019-02-03T08:46:37.943Z,75.38
2019-02-03T08:47:41.455Z,75.50
2019-02-03T08:48:44.829Z,75.46
2019-02-03T08:49:48.339Z,75.41
2019-02-03T08:50:51.775Z,75.41
2019-02-03T08:51:55.381Z,75.33
2019-02-03T08:52:58.830Z,75.29
2019-02-03T08:54:02.265Z,75.29
2019-02-03T08:55:08.442Z,75.32
2019-02-03T08:56:11.920Z,75.37
2019-02-03T08:57:15.631Z,75.55
2019-02-03T08:58:19.242Z,75.62
2019-02-03T08:59:22.631Z,75.75
2019-02-03T09:00:31.034Z,75.66
2019-02-03T09:01:34.472Z,75.69
2019-02-03T09:02:37.988Z,75.91
2019-02-03T09:03:41.444Z,76.01
2019-02-03T09:04:44.879Z,75.82
2019-02-03T09:05:48.434Z,75.67
2019-02-03T09:06:51.828Z,75.52
2019-02-03T09:07:55.551Z,75.67
2019-02-03T09:08:59.047Z,75.56
2019-02-03T09:10:02.537Z,75.45
2019-02-03T09:11:05.960Z,75.41
2019-02-03T09:12:09.457Z,75.53
2019-02-03T09:13:13.266Z,75.46
2019-02-03T09:14:16.716Z,75.53
2019-02-03T09:15:22.660Z,75.35
2019-02-03T09:16:26.168Z,75.36
2019-02-03T09:17:29.666Z,75.00
2019-02-03T09:18:34.951Z,75.36
2019-02-03T09:19:38.377Z,75.47
2019-02-03T09:20:41.942Z,75.62
2019-02-03T09:21:45.441Z,75.65
2019-02-03T09:22:48.968Z,75.60
2019-02-03T09:23:52.399Z,75.49
2019-02-03T09:24:55.822Z,75.66
2019-02-03T09:25:59.319Z,75.51
2019-02-03T09:27:02.741Z,75.28
2019-02-03T09:28:06.408Z,75.13
2019-02-03T09:29:10.203Z,75.18
2019-02-03T09:30:21.910Z,75.09
2019-02-03T09:31:25.474Z,75.09
2019-02-03T09:32:28.988Z,75.22
2019-02-03T09:33:32.534Z,75.19
2019-02-03T09:34:36.040Z,75.38
2019-02-03T09:35:39.553Z,75.22
2019-02-03T09:36:43.010Z,75.08
2019-02-03T09:37:46.687Z,75.13
2019-02-03T09:38:50.251Z,75.01
2019-02-03T09:39:53.934Z,74.81
2019-02-03T09:41:00.334Z,74.72
2019-02-03T09:42:02.707Z,74.91
2019-02-03T09:43:06.385Z,74.95
2019-02-03T09:44:10.125Z,74.73
2019-02-03T09:45:19.009Z,74.69
2019-02-03T09:46:22.802Z,74.87
2019-02-03T09:47:26.237Z,74.81
2019-02-03T09:48:29.666Z,74.95
2019-02-03T09:49:33.100Z,74.91
2019-02-03T09:50:36.545Z,74.97
2019-02-03T09:51:40.040Z,74.92
2019-02-03T09:52:43.896Z,74.99
2019-02-03T09:53:47.318Z,74.80
2019-02-03T09:54:50.749Z,74.89
2019-02-03T09:55:54.286Z,75.07
2019-02-03T09:56:57.768Z,75.11
2019-02-03T09:58:01.545Z,75.18
2019-02-03T09:59:05.227Z,75.07
2019-02-03T10:00:14.849Z,74.97
2019-02-03T10:01:18.556Z,75.16
2019-02-03T10:02:22.512Z,75.08
2019-02-03T10:03:25.965Z,74.93
2019-02-03T10:04:29.797Z,74.87
2019-02-03T10:05:33.280Z,74.50
2019-02-03T10:06:36.983Z,74.53
2019-02-03T10:07:40.568Z,74.41
2019-02-03T10:08:44.128Z,74.30
2019-02-03T10:09:47.832Z,74.43
2019-02-03T10:10:51.660Z,74.23
2019-02-03T10:11:55.160Z,74.14
2019-02-03T10:12:58.662Z,74.27
2019-02-03T10:14:02.192Z,74.58
2019-02-03T10:15:08.056Z,74.71
2019-02-03T10:16:11.862Z,75.07
2019-02-03T10:17:15.806Z,75.20
2019-02-03T10:18:19.594Z,75.43
2019-02-03T10:19:23.613Z,75.27
2019-02-03T10:20:27.368Z,75.45
2019-02-03T10:21:30.828Z,75.52
2019-02-03T10:22:34.394Z,75.28
2019-02-03T10:23:37.896Z,75.32
2019-02-03T10:24:42.558Z,75.34
2019-02-03T10:25:47.003Z,75.40
2019-02-03T10:26:50.525Z,75.52
2019-02-03T10:27:54.498Z,75.56
2019-02-03T10:28:57.953Z,75.33
2019-02-03T10:30:02.983Z,75.38
2019-02-03T10:31:06.548Z,75.29
2019-02-03T10:32:10.067Z,75.15
2019-02-03T10:33:13.910Z,74.98
2019-02-03T10:34:17.403Z,74.76
2019-02-03T10:35:23.904Z,74.68
2019-02-03T10:36:27.417Z,74.83
2019-02-03T10:37:31.055Z,74.72
2019-02-03T10:38:34.575Z,74.60
2019-02-03T10:39:37.999Z,74.42
2019-02-03T10:40:42.890Z,74.62
2019-02-03T10:41:46.387Z,74.82
2019-02-03T10:42:50.894Z,74.74
2019-02-03T10:43:56.435Z,74.72
2019-02-03T10:44:59.544Z,74.87
2019-02-03T10:46:03.056Z,74.99
2019-02-03T10:47:06.579Z,75.13
2019-02-03T10:48:10.098Z,75.07
2019-02-03T10:49:14.069Z,75.06
2019-02-03T10:50:31.597Z,75.14
2019-02-03T10:51:35.482Z,74.84
2019-02-03T10:52:39.011Z,74.64
2019-02-03T10:53:42.477Z,74.26
2019-02-03T10:54:45.960Z,74.25
2019-02-03T10:55:49.577Z,74.39
2019-02-03T10:56:53.015Z,74.27
2019-02-03T10:57:56.803Z,74.16
2019-02-03T10:59:00.312Z,74.13
2019-02-03T11:00:17.683Z,74.25
2019-02-03T11:01:10.841Z,74.33
2019-02-03T11:02:14.286Z,74.63
2019-02-03T11:03:17.810Z,74.64
2019-02-03T11:04:21.258Z,74.76
2019-02-03T11:05:30.731Z,74.85
2019-02-03T11:06:34.225Z,74.83
2019-02-03T11:07:38.092Z,74.70
2019-02-03T11:08:41.670Z,75.05
2019-02-03T11:09:45.182Z,75.50
2019-02-03T11:10:48.722Z,75.51
2019-02-03T11:11:52.331Z,75.31
2019-02-03T11:12:55.961Z,75.31
2019-02-03T11:13:59.429Z,75.59
2019-02-03T11:15:03.092Z,75.81
2019-02-03T11:16:06.664Z,75.64
2019-02-03T11:17:10.162Z,75.39
2019-02-03T11:18:13.887Z,75.37
2019-02-03T11:19:17.406Z,75.47
2019-02-03T11:20:31.811Z,75.34
2019-02-03T11:21:35.306Z,75.17
2019-02-03T11:22:39.191Z,74.86
2019-02-03T11:23:42.689Z,74.88
2019-02-03T11:24:46.151Z,74.93
2019-02-03T11:25:49.574Z,75.09
2019-02-03T11:26:53.067Z,75.22
2019-02-03T11:27:57.009Z,75.17
2019-02-03T11:29:00.461Z,75.15
2019-02-03T11:30:13.504Z,75.18
2019-02-03T11:31:17.033Z,75.14
2019-02-03T11:32:20.600Z,75.18
2019-02-03T11:33:24.201Z,75.11
2019-02-03T11:34:27.617Z,75.09
2019-02-03T11:35:32.304Z,75.13
2019-02-03T11:36:35.772Z,75.05
2019-02-03T11:37:39.402Z,75.04
2019-02-03T11:38:42.839Z,75.26
2019-02-03T11:39:46.356Z,75.50
2019-02-03T11:40:49.855Z,75.59
2019-02-03T11:41:53.254Z,75.71
2019-02-03T11:42:56.859Z,75.70
2019-02-03T11:44:00.256Z,75.73
2019-02-03T11:45:05.761Z,75.74
2019-02-03T11:46:09.213Z,75.77
2019-02-03T11:47:12.745Z,75.74
2019-02-03T11:48:18.214Z,75.57
2019-02-03T11:49:28.411Z,75.50
2019-02-03T11:50:37.825Z,75.29
2019-02-03T11:51:41.366Z,75.35
2019-02-03T11:52:45.203Z,75.20
2019-02-03T11:53:48.836Z,75.24
2019-02-03T11:54:52.391Z,75.40
2019-02-03T11:55:56.516Z,75.39
2019-02-03T11:57:03.110Z,75.16
2019-02-03T11:58:07.255Z,75.27
2019-02-03T11:59:11.210Z,75.02
2019-02-03T12:00:23.769Z,75.02
2019-02-03T12:01:27.492Z,74.99
2019-02-03T12:02:41.893Z,75.20
2019-02-03T12:03:43.266Z,75.21
2019-02-03T12:04:50.160Z,75.06
2019-02-03T12:05:54.138Z,75.09
2019-02-03T12:07:00.019Z,75.03
2019-02-03T12:08:10.636Z,75.01
2019-02-03T12:09:14.838Z,74.92
2019-02-03T12:10:24.442Z,74.74
2019-02-03T12:11:34.527Z,75.03
2019-02-03T12:12:38.604Z,75.16
2019-02-03T12:13:42.433Z,75.14
2019-02-03T12:14:48.976Z,75.12
2019-02-03T12:15:59.063Z,75.12
2019-02-03T12:17:10.751Z,75.02
2019-02-03T12:18:14.433Z,74.92
2019-02-03T12:19:18.201Z,75.11
2019-02-03T12:20:22.170Z,75.33
2019-02-03T12:21:30.125Z,75.25
2019-02-03T12:22:35.127Z,75.57
2019-02-03T12:23:46.079Z,75.56
2019-02-03T12:24:50.195Z,75.44
2019-02-03T12:25:57.406Z,75.62
2019-02-03T12:27:04.389Z,75.86
2019-02-03T12:28:14.201Z,75.87
2019-02-03T12:29:18.184Z,75.87
2019-02-03T12:30:29.268Z,75.89
2019-02-03T12:31:33.316Z,75.92
2019-02-03T12:32:43.791Z,75.76
2019-02-03T12:33:52.095Z,75.47
2019-02-03T12:34:57.856Z,75.47
2019-02-03T12:36:06.194Z,75.19
2019-02-03T12:37:13.356Z,75.25
2019-02-03T12:38:22.425Z,75.26
2019-02-03T12:39:29.949Z,75.53
2019-02-03T12:40:41.751Z,75.70
2019-02-03T12:41:51.627Z,75.70
2019-02-03T12:42:57.228Z,75.64
2019-02-03T12:44:00.801Z,75.67
2019-02-03T12:45:06.917Z,75.87
2019-02-03T12:46:10.482Z,76.23
2019-02-03T12:47:14.005Z,75.99
2019-02-03T12:48:17.792Z,75.54
2019-02-03T12:49:21.226Z,75.53
2019-02-03T12:50:24.819Z,75.48
2019-02-03T12:51:28.296Z,75.22
2019-02-03T12:52:31.767Z,74.53
2019-02-03T12:53:35.331Z,74.51
2019-02-03T12:54:38.925Z,74.54
2019-02-03T12:55:44.808Z,74.89
2019-02-03T12:56:47.724Z,74.80
2019-02-03T12:57:51.427Z,74.81
2019-02-03T12:58:55.036Z,74.63
2019-02-03T12:59:58.550Z,74.74
2019-02-03T13:01:02.037Z,74.62
2019-02-03T13:02:06.036Z,74.49
2019-02-03T13:03:09.622Z,74.43
2019-02-03T13:04:13.216Z,74.60
2019-02-03T13:05:21.303Z,74.54
2019-02-03T13:06:24.750Z,74.62
2019-02-03T13:07:28.254Z,74.55
2019-02-03T13:08:31.810Z,74.43
2019-02-03T13:09:35.250Z,74.18
2019-02-03T13:10:39.454Z,74.01
2019-02-03T13:11:42.977Z,74.01
2019-02-03T13:12:46.491Z,73.95
2019-02-03T13:13:50.088Z,73.89
2019-02-03T13:14:53.608Z,73.95
2019-02-03T13:15:58.007Z,73.85
2019-02-03T13:17:01.747Z,74.27
2019-02-03T13:18:06.711Z,74.35
2019-02-03T13:19:10.571Z,74.22
2019-02-03T13:20:19.390Z,74.21
2019-02-03T13:21:22.928Z,74.05
2019-02-03T13:22:26.460Z,73.88
2019-02-03T13:23:30.100Z,73.93
2019-02-03T13:24:33.607Z,74.18
2019-02-03T13:25:37.184Z,74.03
2019-02-03T13:26:40.644Z,73.98
2019-02-03T13:27:44.241Z,73.95
2019-02-03T13:28:47.850Z,73.93
2019-02-03T13:29:51.363Z,73.75
2019-02-03T13:30:54.864Z,73.84
2019-02-03T13:32:10.198Z,73.99
2019-02-03T13:33:03.665Z,73.88
2019-02-03T13:34:07.186Z,73.79
2019-02-03T13:35:10.974Z,74.01
2019-02-03T13:36:14.861Z,74.08
2019-02-03T13:37:18.353Z,74.18
2019-02-03T13:38:21.945Z,74.14
2019-02-03T13:39:25.454Z,74.20
2019-02-03T13:40:29.035Z,73.98
2019-02-03T13:41:32.473Z,73.64
2019-02-03T13:42:37.731Z,73.73
2019-02-03T13:43:41.312Z,73.71
2019-02-03T13:44:44.879Z,73.45